createdAt,value
2023-02-02T00:00:25.735Z,87.57
2023-02-02T00:01:25.737Z,87.47
2023-02-02T00:02:26.994Z,87.47
2023-02-02T00:03:25.777Z,87.37
2023-02-02T00:04:25.645Z,87.37
2023-02-02T00:05:26.642Z,87.47
2023-02-02T00:06:25.649Z,87.16
2023-02-02T00:07:25.604Z,87.12
2023-02-02T00:08:25.604Z,86.91
2023-02-02T00:09:25.603Z,87.27
2023-02-02T00:10:25.572Z,86.40
2023-02-02T00:11:25.545Z,86.91
2023-02-02T00:12:25.555Z,87.02
2023-02-02T00:13:25.550Z,87.37
2023-02-02T00:14:25.755Z,87.68
2023-02-02T00:15:25.766Z,87.68
2023-02-02T00:16:25.595Z,87.57
2023-02-02T00:17:25.518Z,87.88
2023-02-02T00:18:25.464Z,88.09
2023-02-02T00:19:25.495Z,87.57
2023-02-02T00:20:25.436Z,87.57
2023-02-02T00:21:25.447Z,87.57
2023-02-02T00:22:25.485Z,86.91
2023-02-02T00:23:25.405Z,86.81
2023-02-02T00:24:25.403Z,87.12
2023-02-02T00:25:25.695Z,87.02
2023-02-02T00:26:25.532Z,87.27
2023-02-02T00:27:25.374Z,87.78
2023-02-02T00:28:25.356Z,87.47
2023-02-02T00:29:25.360Z,87.37
2023-02-02T00:30:25.410Z,87.47
2023-02-02T00:31:25.298Z,87.37
2023-02-02T00:32:25.296Z,87.27
2023-02-02T00:33:25.307Z,87.47
2023-02-02T00:34:25.288Z,87.16
2023-02-02T00:35:25.614Z,87.27
2023-02-02T00:36:25.259Z,87.57
2023-02-02T00:37:25.337Z,87.68
2023-02-02T00:38:26.157Z,87.27
2023-02-02T00:39:25.176Z,87.68
2023-02-02T00:40:25.210Z,87.57
2023-02-02T00:41:25.161Z,87.33
2023-02-02T00:42:25.189Z,87.64
2023-02-02T00:43:25.145Z,88.40
2023-02-02T00:44:25.136Z,88.71
2023-02-02T00:45:25.555Z,89.13
2023-02-02T00:46:25.105Z,88.51
2023-02-02T00:47:25.140Z,88.40
2023-02-02T00:48:25.056Z,88.92
2023-02-02T00:49:25.055Z,89.03
2023-02-02T00:50:25.126Z,88.92
2023-02-02T00:51:25.810Z,89.03
2023-02-02T00:52:25.096Z,88.71
2023-02-02T00:53:25.008Z,88.30
2023-02-02T00:54:25.033Z,88.30
2023-02-02T00:55:25.320Z,87.88
2023-02-02T00:56:24.961Z,88.09
2023-02-02T00:57:25.015Z,88.30
2023-02-02T00:58:24.960Z,88.40
2023-02-02T00:59:24.951Z,88.20
2023-02-02T01:00:24.998Z,87.47
2023-02-02T01:01:24.999Z,87.57
2023-02-02T01:02:25.038Z,87.57
2023-02-02T01:03:24.870Z,86.81
2023-02-02T01:04:26.011Z,87.02
2023-02-02T01:05:25.370Z,86.71
2023-02-02T01:06:24.882Z,86.81
2023-02-02T01:07:24.822Z,87.12
2023-02-02T01:08:24.807Z,87.12
2023-02-02T01:09:25.629Z,86.71
2023-02-02T01:10:24.808Z,86.50
2023-02-02T01:11:24.779Z,86.09
2023-02-02T01:12:25.844Z,86.50
2023-02-02T01:13:24.759Z,86.29
2023-02-02T01:14:24.758Z,86.19
2023-02-02T01:15:25.047Z,86.60
2023-02-02T01:16:24.802Z,85.88
2023-02-02T01:17:24.939Z,86.29
2023-02-02T01:18:24.723Z,86.71
2023-02-02T01:19:24.684Z,86.09
2023-02-02T01:20:24.678Z,85.88
2023-02-02T01:21:24.715Z,86.09
2023-02-02T01:22:24.673Z,86.09
2023-02-02T01:23:24.750Z,86.50
2023-02-02T01:24:24.631Z,85.57
2023-02-02T01:25:24.917Z,86.09
2023-02-02T01:26:24.640Z,86.19
2023-02-02T01:27:25.424Z,86.29
2023-02-02T01:28:24.568Z,85.88
2023-02-02T01:29:24.532Z,85.99
2023-02-02T01:30:24.547Z,86.09
2023-02-02T01:31:24.700Z,86.40
2023-02-02T01:32:24.644Z,86.29
2023-02-02T01:33:24.590Z,86.40
2023-02-02T01:34:24.524Z,86.85
2023-02-02T01:35:24.758Z,86.19
2023-02-02T01:36:24.444Z,86.60
2023-02-02T01:37:24.519Z,87.06
2023-02-02T01:38:24.424Z,87.47
2023-02-02T01:39:24.407Z,87.27
2023-02-02T01:40:24.424Z,87.37
2023-02-02T01:41:24.437Z,87.47
2023-02-02T01:42:24.672Z,87.99
2023-02-02T01:43:24.553Z,87.78
2023-02-02T01:44:24.344Z,87.78
2023-02-02T01:45:24.609Z,87.68
2023-02-02T01:46:24.342Z,87.78
2023-02-02T01:47:24.335Z,87.78
2023-02-02T01:48:25.317Z,87.57
2023-02-02T01:49:24.312Z,87.78
2023-02-02T01:50:24.262Z,88.09
2023-02-02T01:51:24.273Z,87.88
2023-02-02T01:52:24.275Z,87.99
2023-02-02T01:53:24.931Z,87.78
2023-02-02T01:54:24.224Z,87.78
2023-02-02T01:55:25.124Z,88.09
2023-02-02T01:56:24.187Z,87.88
2023-02-02T01:57:24.265Z,87.68
2023-02-02T01:58:24.187Z,87.47
2023-02-02T01:59:24.176Z,87.57
2023-02-02T02:00:24.155Z,87.12
2023-02-02T02:01:24.260Z,87.47
2023-02-02T02:02:24.162Z,87.06
2023-02-02T02:03:24.113Z,87.06
2023-02-02T02:04:24.131Z,86.75
2023-02-02T02:05:24.285Z,86.96
2023-02-02T02:06:24.464Z,87.27
2023-02-02T02:07:24.085Z,86.96
2023-02-02T02:08:25.049Z,87.16
2023-02-02T02:09:24.485Z,86.85
2023-02-02T02:10:24.015Z,86.33
2023-02-02T02:11:24.057Z,86.44
2023-02-02T02:12:24.976Z,86.65
2023-02-02T02:13:24.028Z,86.44
2023-02-02T02:14:23.976Z,86.75
2023-02-02T02:15:25.275Z,86.54
2023-02-02T02:16:23.943Z,86.65
2023-02-02T02:17:23.939Z,86.96
2023-02-02T02:18:23.982Z,87.16
2023-02-02T02:19:25.041Z,87.27
2023-02-02T02:20:23.970Z,87.16
2023-02-02T02:21:23.862Z,87.51
2023-02-02T02:22:23.960Z,87.20
2023-02-02T02:23:24.695Z,86.54
2023-02-02T02:24:23.850Z,86.54
2023-02-02T02:25:24.032Z,86.75
2023-02-02T02:26:24.560Z,86.89
2023-02-02T02:27:23.807Z,86.54
2023-02-02T02:28:23.886Z,86.75
2023-02-02T02:29:23.771Z,86.99
2023-02-02T02:30:23.835Z,86.89
2023-02-02T02:31:23.832Z,87.10
2023-02-02T02:32:23.762Z,87.10
2023-02-02T02:33:24.120Z,87.20
2023-02-02T02:34:23.717Z,86.99
2023-02-02T02:35:24.061Z,86.89
2023-02-02T02:36:23.697Z,87.10
2023-02-02T02:37:23.677Z,87.30
2023-02-02T02:38:23.641Z,87.20
2023-02-02T02:39:23.986Z,87.41
2023-02-02T02:40:23.654Z,87.51
2023-02-02T02:41:23.643Z,87.51
2023-02-02T02:42:23.605Z,87.62
2023-02-02T02:43:23.674Z,87.72
2023-02-02T02:44:23.642Z,87.93
2023-02-02T02:45:24.827Z,87.62
2023-02-02T02:46:24.524Z,87.62
2023-02-02T02:47:23.672Z,87.62
2023-02-02T02:48:23.707Z,87.72
2023-02-02T02:49:23.559Z,87.72
2023-02-02T02:50:23.486Z,87.82
2023-02-02T02:51:23.501Z,87.93
2023-02-02T02:52:23.494Z,88.03
2023-02-02T02:53:24.337Z,87.62
2023-02-02T02:54:23.453Z,87.51
2023-02-02T02:55:23.773Z,87.41
2023-02-02T02:56:23.420Z,87.51
2023-02-02T02:57:23.432Z,87.30
2023-02-02T02:58:23.609Z,87.30
2023-02-02T02:59:24.363Z,87.62
2023-02-02T03:00:24.344Z,87.82
2023-02-02T03:01:23.441Z,88.03
2023-02-02T03:02:24.650Z,88.45
2023-02-02T03:03:23.337Z,88.34
2023-02-02T03:04:24.305Z,88.45
2023-02-02T03:05:23.626Z,88.13
2023-02-02T03:06:23.286Z,87.93
2023-02-02T03:07:23.301Z,87.72
2023-02-02T03:08:23.292Z,87.62
2023-02-02T03:09:23.291Z,87.62
2023-02-02T03:10:23.284Z,87.93
2023-02-02T03:11:24.148Z,88.24
2023-02-02T03:12:23.696Z,88.59
2023-02-02T03:13:23.566Z,88.34
2023-02-02T03:14:23.189Z,88.24
2023-02-02T03:15:23.551Z,88.24
2023-02-02T03:16:24.175Z,88.24
2023-02-02T03:17:23.186Z,88.13
2023-02-02T03:18:23.174Z,88.03
2023-02-02T03:19:23.136Z,88.24
2023-02-02T03:20:23.097Z,88.24
2023-02-02T03:21:23.144Z,88.24
2023-02-02T03:22:24.114Z,88.34
2023-02-02T03:23:23.084Z,88.34
2023-02-02T03:24:23.142Z,88.24
2023-02-02T03:25:23.462Z,88.24
2023-02-02T03:26:23.103Z,88.45
2023-02-02T03:27:23.001Z,88.55
2023-02-02T03:28:23.009Z,88.34
2023-02-02T03:29:23.033Z,88.24
2023-02-02T03:30:23.019Z,88.34
2023-02-02T03:31:23.208Z,88.34
2023-02-02T03:32:23.979Z,88.24
2023-02-02T03:33:22.998Z,88.34
2023-02-02T03:34:22.921Z,88.34
2023-02-02T03:35:24.138Z,88.34
2023-02-02T03:36:24.354Z,88.34
2023-02-02T03:37:22.947Z,88.34
2023-02-02T03:38:22.987Z,88.13
2023-02-02T03:39:22.868Z,88.03
2023-02-02T03:40:22.908Z,88.13
2023-02-02T03:41:22.842Z,88.03
2023-02-02T03:42:22.878Z,88.24
2023-02-02T03:43:22.837Z,88.48
2023-02-02T03:44:22.881Z,88.39
2023-02-02T03:45:23.049Z,88.59
2023-02-02T03:46:22.802Z,88.69
2023-02-02T03:47:22.790Z,88.59
2023-02-02T03:48:23.101Z,88.39
2023-02-02T03:49:22.742Z,88.18
2023-02-02T03:50:23.990Z,88.18
2023-02-02T03:51:22.828Z,88.39
2023-02-02T03:52:22.738Z,88.39
2023-02-02T03:53:22.705Z,88.28
2023-02-02T03:54:22.691Z,88.48
2023-02-02T03:55:23.507Z,88.69
2023-02-02T03:56:22.675Z,88.90
2023-02-02T03:57:22.631Z,89.11
2023-02-02T03:58:23.731Z,89.00
2023-02-02T03:59:22.600Z,88.79
2023-02-02T04:00:22.656Z,88.79
2023-02-02T04:01:22.709Z,88.59
2023-02-02T04:02:23.341Z,88.59
2023-02-02T04:03:22.707Z,88.59
2023-02-02T04:04:22.743Z,88.59
2023-02-02T04:05:22.841Z,88.69
2023-02-02T04:06:22.684Z,88.28
2023-02-02T04:07:22.542Z,88.28
2023-02-02T04:08:23.278Z,88.39
2023-02-02T04:09:22.653Z,88.69
2023-02-02T04:10:22.768Z,88.59
2023-02-02T04:11:23.523Z,88.48
2023-02-02T04:12:22.443Z,88.48
2023-02-02T04:13:23.311Z,88.59
2023-02-02T04:14:22.447Z,88.48
2023-02-02T04:15:22.699Z,88.48
2023-02-02T04:16:22.418Z,88.28
2023-02-02T04:17:22.361Z,88.18
2023-02-02T04:18:22.546Z,88.07
2023-02-02T04:19:22.440Z,87.97
2023-02-02T04:20:22.383Z,87.97
2023-02-02T04:21:22.511Z,87.97
2023-02-02T04:22:22.329Z,87.87
2023-02-02T04:23:23.376Z,87.87
2023-02-02T04:24:22.276Z,88.07
2023-02-02T04:25:22.486Z,88.07
2023-02-02T04:26:22.285Z,88.28
2023-02-02T04:27:22.329Z,88.28
2023-02-02T04:28:23.052Z,88.39
2023-02-02T04:29:22.237Z,88.48
2023-02-02T04:30:22.202Z,88.39
2023-02-02T04:31:22.271Z,88.39
2023-02-02T04:32:22.298Z,88.48
2023-02-02T04:33:22.196Z,88.59
2023-02-02T04:34:22.828Z,88.48
2023-02-02T04:35:22.358Z,88.39
2023-02-02T04:36:22.153Z,88.48
2023-02-02T04:37:22.259Z,88.48
2023-02-02T04:38:22.935Z,88.48
2023-02-02T04:39:22.870Z,88.39
2023-02-02T04:40:22.099Z,88.48
2023-02-02T04:41:23.206Z,88.48
2023-02-02T04:42:22.098Z,88.39
2023-02-02T04:43:22.998Z,88.39
2023-02-02T04:44:22.138Z,88.39
2023-02-02T04:45:22.191Z,88.39
2023-02-02T04:46:21.994Z,88.24
2023-02-02T04:47:21.998Z,88.59
2023-02-02T04:48:22.231Z,88.48
2023-02-02T04:49:21.993Z,88.24
2023-02-02T04:50:21.975Z,88.24
2023-02-02T04:51:21.975Z,88.24
2023-02-02T04:52:22.976Z,88.34
2023-02-02T04:53:22.140Z,88.76
2023-02-02T04:54:21.957Z,89.52
2023-02-02T04:55:22.103Z,89.83
2023-02-02T04:56:21.979Z,90.35
2023-02-02T04:57:21.872Z,90.56
2023-02-02T04:58:21.904Z,90.25
2023-02-02T04:59:21.889Z,90.45
2023-02-02T05:00:21.956Z,90.45
2023-02-02T05:01:21.858Z,90.56
2023-02-02T05:02:22.467Z,90.70
2023-02-02T05:03:21.952Z,90.70
2023-02-02T05:04:23.048Z,91.02
2023-02-02T05:05:22.162Z,91.02
2023-02-02T05:06:21.759Z,91.12
2023-02-02T05:07:21.912Z,90.91
2023-02-02T05:08:21.729Z,90.70
2023-02-02T05:09:21.796Z,90.81
2023-02-02T05:10:21.684Z,91.02
2023-02-02T05:11:22.194Z,91.12
2023-02-02T05:12:21.720Z,91.33
2023-02-02T05:13:21.786Z,91.33
2023-02-02T05:14:21.671Z,91.22
2023-02-02T05:15:22.806Z,91.22
2023-02-02T05:16:21.665Z,91.33
2023-02-02T05:17:21.620Z,91.33
2023-02-02T05:18:21.663Z,91.47
2023-02-02T05:19:21.979Z,91.68
2023-02-02T05:20:21.690Z,91.89
2023-02-02T05:21:21.571Z,91.89
2023-02-02T05:22:21.559Z,91.78
2023-02-02T05:23:21.531Z,91.58
2023-02-02T05:24:21.533Z,91.58
2023-02-02T05:25:22.858Z,91.68
2023-02-02T05:26:21.578Z,91.68
2023-02-02T05:27:21.467Z,91.68
2023-02-02T05:28:21.719Z,91.68
2023-02-02T05:29:21.453Z,91.68
2023-02-02T05:30:21.496Z,91.68
2023-02-02T05:31:21.552Z,91.68
2023-02-02T05:32:22.412Z,91.78
2023-02-02T05:33:21.444Z,91.64
2023-02-02T05:34:21.407Z,91.43
2023-02-02T05:35:21.586Z,91.33
2023-02-02T05:36:21.373Z,91.53
2023-02-02T05:37:21.351Z,91.89
2023-02-02T05:38:21.513Z,91.89
2023-02-02T05:39:21.349Z,91.89
2023-02-02T05:40:21.281Z,91.99
2023-02-02T05:41:21.356Z,92.20
2023-02-02T05:42:22.275Z,92.20
2023-02-02T05:43:21.667Z,91.99
2023-02-02T05:44:22.393Z,91.99
2023-02-02T05:45:21.265Z,92.10
2023-02-02T05:46:21.261Z,92.30
2023-02-02T05:47:22.520Z,92.30
2023-02-02T05:48:22.384Z,92.30
2023-02-02T05:49:21.207Z,92.20
2023-02-02T05:50:22.248Z,92.20
2023-02-02T05:51:21.199Z,92.30
2023-02-02T05:52:22.103Z,92.51
2023-02-02T05:53:21.135Z,92.72
2023-02-02T05:54:21.142Z,92.72
2023-02-02T05:55:21.105Z,92.82
2023-02-02T05:56:21.165Z,92.93
2023-02-02T05:57:22.110Z,92.82
2023-02-02T05:58:22.528Z,92.82
2023-02-02T05:59:21.299Z,92.93
2023-02-02T06:00:21.054Z,93.02
2023-02-02T06:01:21.466Z,92.93
2023-02-02T06:02:21.073Z,93.02
2023-02-02T06:03:22.089Z,92.93
2023-02-02T06:04:20.985Z,92.82
2023-02-02T06:05:20.999Z,92.93
2023-02-02T06:06:20.966Z,93.02
2023-02-02T06:07:21.018Z,92.93
2023-02-02T06:08:21.993Z,92.93
2023-02-02T06:09:20.959Z,92.82
2023-02-02T06:10:22.398Z,92.82
2023-02-02T06:11:20.936Z,92.82
2023-02-02T06:12:20.976Z,92.93
2023-02-02T06:13:22.039Z,92.93
2023-02-02T06:14:21.111Z,92.93
2023-02-02T06:15:20.891Z,92.93
2023-02-02T06:16:22.438Z,92.82
2023-02-02T06:17:20.872Z,92.97
2023-02-02T06:18:22.073Z,93.18
2023-02-02T06:19:20.832Z,93.49
2023-02-02T06:20:22.509Z,93.38
2023-02-02T06:21:20.797Z,93.38
2023-02-02T06:22:20.777Z,93.33
2023-02-02T06:23:20.795Z,93.02
2023-02-02T06:24:20.767Z,92.93
2023-02-02T06:25:20.734Z,93.02
2023-02-02T06:26:20.949Z,93.18
2023-02-02T06:27:21.719Z,93.18
2023-02-02T06:28:20.719Z,93.28
2023-02-02T06:29:20.700Z,93.38
2023-02-02T06:30:20.679Z,93.49
2023-02-02T06:31:20.779Z,93.70
2023-02-02T06:32:20.608Z,93.80
2023-02-02T06:33:20.629Z,93.59
2023-02-02T06:34:20.633Z,93.59
2023-02-02T06:35:20.605Z,93.59
2023-02-02T06:36:20.700Z,93.59
2023-02-02T06:37:20.591Z,93.70
2023-02-02T06:38:21.632Z,93.70
2023-02-02T06:39:21.587Z,93.59
2023-02-02T06:40:20.554Z,93.38
2023-02-02T06:41:21.391Z,93.59
2023-02-02T06:42:22.078Z,93.70
2023-02-02T06:43:20.583Z,93.84
2023-02-02T06:44:20.479Z,94.05
2023-02-02T06:45:20.473Z,94.15
2023-02-02T06:46:20.510Z,94.05
2023-02-02T06:47:20.454Z,94.01
2023-02-02T06:48:21.241Z,93.90
2023-02-02T06:49:20.424Z,93.70
2023-02-02T06:50:20.421Z,93.49
2023-02-02T06:51:20.391Z,93.49
2023-02-02T06:52:20.416Z,93.49
2023-02-02T06:53:20.470Z,93.59
2023-02-02T06:54:21.177Z,93.59
2023-02-02T06:55:20.401Z,93.59
2023-02-02T06:56:20.342Z,93.38
2023-02-02T06:57:20.301Z,93.38
2023-02-02T06:58:20.319Z,93.59
2023-02-02T06:59:20.634Z,93.80
2023-02-02T07:00:21.251Z,93.80
2023-02-02T07:01:20.334Z,93.59
2023-02-02T07:02:21.448Z,93.70
2023-02-02T07:03:20.292Z,93.70
2023-02-02T07:04:20.264Z,93.49
2023-02-02T07:05:20.217Z,93.33
2023-02-02T07:06:20.213Z,93.33
2023-02-02T07:07:20.247Z,93.33
2023-02-02T07:08:20.216Z,93.13
2023-02-02T07:09:20.218Z,93.02
2023-02-02T07:11:12.598Z,92.72
2023-02-02T07:11:21.120Z,92.57
2023-02-02T07:12:20.177Z,92.61
2023-02-02T07:13:20.280Z,92.72
2023-02-02T07:14:20.252Z,92.82
2023-02-02T07:15:20.095Z,92.93
2023-02-02T07:16:20.156Z,93.02
2023-02-02T07:17:20.090Z,93.02
2023-02-02T07:18:20.043Z,93.13
2023-02-02T07:19:20.050Z,93.23
2023-02-02T07:20:20.008Z,93.23
2023-02-02T07:21:20.049Z,93.23
2023-02-02T07:22:20.007Z,92.93
2023-02-02T07:23:19.976Z,92.93
2023-02-02T07:24:20.210Z,93.02
2023-02-02T07:25:19.956Z,93.13
2023-02-02T07:26:20.005Z,92.93
2023-02-02T07:27:19.913Z,92.82
2023-02-02T07:28:20.026Z,92.72
2023-02-02T07:29:19.949Z,92.51
2023-02-02T07:30:19.971Z,92.36
2023-02-02T07:31:19.969Z,92.16
2023-02-02T07:32:19.868Z,92.16
2023-02-02T07:33:19.977Z,92.41
2023-02-02T07:34:19.836Z,92.26
2023-02-02T07:35:19.850Z,92.36
2023-02-02T07:36:19.851Z,92.36
2023-02-02T07:37:19.792Z,92.26
2023-02-02T07:38:19.794Z,92.05
2023-02-02T07:39:19.787Z,92.05
2023-02-02T07:40:19.792Z,92.16
2023-02-02T07:41:19.769Z,92.05
2023-02-02T07:42:19.777Z,92.05
2023-02-02T07:43:19.885Z,91.80
2023-02-02T07:44:19.754Z,91.80
2023-02-02T07:45:27.244Z,91.80
2023-02-02T07:46:20.745Z,91.91
2023-02-02T07:47:19.716Z,92.01
2023-02-02T07:48:19.661Z,92.01
2023-02-02T07:49:19.686Z,91.91
2023-02-02T07:50:19.623Z,91.80
2023-02-02T07:51:19.618Z,91.80
2023-02-02T07:52:20.724Z,91.91
2023-02-02T07:53:19.606Z,91.80
2023-02-02T07:54:19.580Z,91.80
2023-02-02T07:55:19.592Z,91.80
2023-02-02T07:56:19.613Z,91.70
2023-02-02T07:57:19.533Z,92.01
2023-02-02T07:58:19.527Z,92.11
2023-02-02T07:59:19.524Z,92.11
2023-02-02T08:00:19.496Z,92.11
2023-02-02T08:01:19.516Z,92.01
2023-02-02T08:02:19.660Z,91.91
2023-02-02T08:03:19.598Z,91.76
2023-02-02T08:04:19.484Z,91.86
2023-02-02T08:05:19.428Z,91.66
2023-02-02T08:06:19.427Z,91.86
2023-02-02T08:07:19.459Z,91.97
2023-02-02T08:08:19.394Z,91.76
2023-02-02T08:09:19.380Z,91.86
2023-02-02T08:10:20.531Z,91.97
2023-02-02T08:11:19.379Z,91.76
2023-02-02T08:12:20.344Z,91.76
2023-02-02T08:13:19.399Z,91.76
2023-02-02T08:14:19.330Z,91.86
2023-02-02T08:15:19.323Z,92.07
2023-02-02T08:16:19.355Z,92.18
2023-02-02T08:17:19.303Z,92.28
2023-02-02T08:18:19.561Z,92.07
2023-02-02T08:19:19.252Z,92.18
2023-02-02T08:20:19.225Z,92.18
2023-02-02T08:21:19.283Z,92.38
2023-02-02T08:22:20.398Z,92.28
2023-02-02T08:23:19.905Z,92.38
2023-02-02T08:24:19.188Z,92.38
2023-02-02T08:25:19.168Z,92.18
2023-02-02T08:26:19.245Z,92.18
2023-02-02T08:27:19.177Z,92.07
2023-02-02T08:28:19.205Z,92.07
2023-02-02T08:29:19.195Z,92.18
2023-02-02T08:30:19.163Z,92.07
2023-02-02T08:31:19.165Z,91.93
2023-02-02T08:32:19.165Z,91.86
2023-02-02T08:33:19.145Z,92.03
2023-02-02T08:34:19.063Z,92.03
2023-02-02T08:35:19.076Z,92.24
2023-02-02T08:36:19.128Z,92.24
2023-02-02T08:37:19.044Z,92.24
2023-02-02T08:38:19.078Z,92.13
2023-02-02T08:39:18.993Z,92.03
2023-02-02T08:40:19.006Z,92.03
2023-02-02T08:41:19.004Z,92.03
2023-02-02T08:42:20.020Z,92.13
2023-02-02T08:43:18.939Z,91.93
2023-02-02T08:44:18.971Z,92.13
2023-02-02T08:46:07.742Z,92.03
2023-02-02T08:46:20.453Z,91.93
2023-02-02T08:47:18.886Z,91.82
2023-02-02T08:48:18.933Z,91.72
2023-02-02T08:49:18.937Z,91.82
2023-02-02T08:50:18.837Z,92.03
2023-02-02T08:51:18.854Z,92.13
2023-02-02T08:52:20.085Z,91.82
2023-02-02T08:53:18.908Z,91.78
2023-02-02T08:54:18.833Z,91.99
2023-02-02T08:55:19.801Z,91.88
2023-02-02T08:56:18.793Z,91.88
2023-02-02T08:57:18.763Z,91.88
2023-02-02T08:58:18.744Z,92.09
2023-02-02T08:59:18.759Z,91.99
2023-02-02T09:00:18.784Z,92.30
2023-02-02T09:01:18.794Z,92.30
2023-02-02T09:02:19.672Z,92.30
2023-02-02T09:03:18.692Z,92.30
2023-02-02T09:04:18.707Z,91.47
2023-02-02T09:05:18.688Z,91.32
2023-02-02T09:06:18.656Z,91.47
2023-02-02T09:07:21.014Z,91.47
2023-02-02T09:08:19.612Z,91.67
2023-02-02T09:09:18.685Z,91.78
2023-02-02T09:10:18.621Z,91.78
2023-02-02T09:11:18.638Z,92.09
2023-02-02T09:12:19.701Z,91.99
2023-02-02T09:13:18.594Z,91.74
2023-02-02T09:14:18.571Z,91.53
2023-02-02T09:15:18.542Z,91.32
2023-02-02T09:16:18.592Z,91.49
2023-02-02T09:17:18.561Z,91.49
2023-02-02T09:18:18.533Z,91.38
2023-02-02T09:19:19.336Z,91.28
2023-02-02T09:20:20.542Z,90.87
2023-02-02T09:21:18.452Z,91.07
2023-02-02T09:22:18.714Z,90.97
2023-02-02T09:23:18.445Z,91.17
2023-02-02T09:24:18.464Z,91.49
2023-02-02T09:25:18.418Z,90.97
2023-02-02T09:26:18.529Z,90.87
2023-02-02T09:27:18.445Z,90.87
2023-02-02T09:28:18.349Z,90.72
2023-02-02T09:29:18.389Z,90.83
2023-02-02T09:30:18.333Z,90.83
2023-02-02T09:31:18.405Z,91.03
2023-02-02T09:32:18.340Z,90.52
2023-02-02T09:33:18.293Z,90.52
2023-02-02T09:34:18.353Z,90.52
2023-02-02T09:35:18.294Z,90.72
2023-02-02T09:36:18.273Z,90.77
2023-02-02T09:37:18.283Z,90.56
2023-02-02T09:38:18.302Z,90.04
2023-02-02T09:39:18.263Z,89.83
2023-02-02T09:40:18.297Z,90.14
2023-02-02T09:41:18.188Z,90.35
2023-02-02T09:42:19.377Z,90.14
2023-02-02T09:43:18.164Z,90.00
2023-02-02T09:44:18.161Z,90.10
2023-02-02T09:45:18.162Z,89.79
2023-02-02T09:46:18.249Z,89.54
2023-02-02T09:47:18.227Z,89.13
2023-02-02T09:48:18.143Z,89.23
2023-02-02T09:49:18.117Z,89.44
2023-02-02T09:50:18.086Z,89.54
2023-02-02T09:51:18.111Z,89.65
2023-02-02T09:52:18.122Z,89.23
2023-02-02T09:53:18.063Z,89.44
2023-02-02T09:54:18.091Z,89.23
2023-02-02T09:55:18.041Z,88.98
2023-02-02T09:56:18.007Z,89.19
2023-02-02T09:57:18.149Z,89.19
2023-02-02T09:58:18.033Z,89.19
2023-02-02T09:59:20.914Z,88.98
2023-02-02T10:00:17.964Z,88.98
2023-02-02T10:01:18.001Z,89.09
2023-02-02T10:02:17.981Z,88.37
2023-02-02T10:03:17.916Z,88.57
2023-02-02T10:04:17.951Z,88.98
2023-02-02T10:05:17.915Z,88.89
2023-02-02T10:06:17.878Z,88.47
2023-02-02T10:07:17.904Z,88.37
2023-02-02T10:08:28.991Z,88.68
2023-02-02T10:09:18.839Z,89.19
2023-02-02T10:10:17.998Z,89.05
2023-02-02T10:11:17.825Z,88.95
2023-02-02T10:12:19.064Z,88.32
2023-02-02T10:13:17.829Z,88.84
2023-02-02T10:14:17.845Z,88.22
2023-02-02T10:15:17.782Z,87.40
2023-02-02T10:16:17.944Z,87.92
2023-02-02T10:17:17.742Z,88.74
2023-02-02T10:18:17.776Z,88.32
2023-02-02T10:19:17.686Z,88.53
2023-02-02T10:20:17.669Z,88.74
2023-02-02T10:21:17.711Z,88.53
2023-02-02T10:22:17.727Z,88.64
2023-02-02T10:23:17.690Z,87.81
2023-02-02T10:24:18.052Z,88.32
2023-02-02T10:25:17.639Z,88.32
2023-02-02T10:26:17.674Z,88.32
2023-02-02T10:27:17.573Z,88.74
2023-02-02T10:28:17.585Z,89.05
2023-02-02T10:29:17.646Z,88.32
2023-02-02T10:30:17.590Z,88.22
2023-02-02T10:31:17.680Z,88.29
2023-02-02T10:32:17.541Z,88.02
2023-02-02T10:33:17.557Z,88.18
2023-02-02T10:34:17.589Z,88.53
2023-02-02T10:35:17.501Z,87.81
2023-02-02T10:36:17.487Z,87.26
2023-02-02T10:37:18.270Z,87.26
2023-02-02T10:38:17.587Z,86.84
2023-02-02T10:39:17.432Z,86.49
2023-02-02T10:40:17.504Z,86.39
2023-02-02T10:41:17.436Z,86.49
2023-02-02T10:42:17.466Z,85.77
2023-02-02T10:43:17.783Z,85.77
2023-02-02T10:44:17.467Z,86.29
2023-02-02T10:45:17.392Z,86.08
2023-02-02T10:46:17.472Z,86.18
2023-02-02T10:47:17.324Z,86.29
2023-02-02T10:48:17.315Z,87.42
2023-02-02T10:49:17.356Z,86.53
2023-02-02T10:50:17.488Z,87.26
2023-02-02T10:51:17.317Z,87.46
2023-02-02T10:52:17.508Z,87.92
2023-02-02T10:53:17.261Z,88.43
2023-02-02T10:54:17.266Z,88.53
2023-02-02T10:55:17.322Z,89.36
2023-02-02T10:56:17.234Z,89.98
2023-02-02T10:57:17.228Z,89.25
2023-02-02T10:58:17.217Z,90.19
2023-02-02T10:59:17.183Z,89.67
2023-02-02T11:00:17.240Z,87.71
2023-02-02T11:01:17.239Z,87.81
2023-02-02T11:02:20.961Z,87.81
2023-02-02T11:03:17.141Z,87.19
2023-02-02T11:04:17.153Z,88.22
2023-02-02T11:05:17.107Z,87.19
2023-02-02T11:06:17.113Z,87.60
2023-02-02T11:07:17.093Z,87.92
2023-02-02T11:08:17.145Z,87.60
2023-02-02T11:09:17.067Z,87.60
2023-02-02T11:10:17.039Z,87.08
2023-02-02T11:11:17.051Z,87.46
2023-02-02T11:12:17.051Z,86.74
2023-02-02T11:13:17.028Z,87.52
2023-02-02T11:14:17.008Z,87.63
2023-02-02T11:15:16.973Z,87.48
2023-02-02T11:16:17.162Z,86.87
2023-02-02T11:17:16.959Z,86.15
2023-02-02T11:18:16.918Z,85.63
2023-02-02T11:19:17.731Z,85.11
2023-02-02T11:20:19.409Z,85.73
2023-02-02T11:21:17.930Z,84.80
2023-02-02T11:22:17.848Z,85.63
2023-02-02T11:23:16.856Z,84.70
2023-02-02T11:24:16.890Z,85.01
2023-02-02T11:25:16.858Z,85.22
2023-02-02T11:26:16.829Z,84.91
2023-02-02T11:27:16.861Z,84.29
2023-02-02T11:28:16.826Z,85.22
2023-02-02T11:29:16.796Z,85.63
2023-02-02T11:30:16.759Z,85.52
2023-02-02T11:31:16.831Z,85.11
2023-02-02T11:32:16.853Z,84.39
2023-02-02T11:33:16.781Z,83.98
2023-02-02T11:34:18.867Z,83.36
2023-02-02T11:35:16.712Z,83.77
2023-02-02T11:36:16.726Z,84.39
2023-02-02T11:37:16.853Z,84.08
2023-02-02T11:38:16.704Z,83.56
2023-02-02T11:39:16.685Z,83.87
2023-02-02T11:40:16.677Z,84.45
2023-02-02T11:41:16.625Z,84.19
2023-02-02T11:42:16.650Z,83.98
2023-02-02T11:43:16.743Z,84.19
2023-02-02T11:44:16.624Z,83.26
2023-02-02T11:45:16.574Z,82.23
2023-02-02T11:46:17.747Z,81.61
2023-02-02T11:47:16.605Z,81.81
2023-02-02T11:48:16.565Z,82.12
2023-02-02T11:49:16.521Z,81.81
2023-02-02T11:50:16.512Z,81.88
2023-02-02T11:51:16.594Z,81.98
2023-02-02T11:52:17.203Z,81.92
2023-02-02T11:53:16.672Z,82.23
2023-02-02T11:54:16.687Z,83.05
2023-02-02T11:55:16.436Z,82.95
2023-02-02T11:56:16.427Z,83.36
2023-02-02T11:57:16.442Z,83.05
2023-02-02T11:58:16.528Z,83.19
2023-02-02T11:59:17.029Z,83.71
2023-02-02T12:00:17.399Z,84.12
2023-02-02T12:01:16.414Z,84.99
2023-02-02T12:02:17.117Z,85.50
2023-02-02T12:03:16.369Z,86.08
2023-02-02T12:04:16.381Z,86.80
2023-02-02T12:05:16.359Z,86.70
2023-02-02T12:06:16.766Z,86.53
2023-02-02T12:07:16.289Z,86.63
2023-02-02T12:08:16.310Z,86.63
2023-02-02T12:09:16.245Z,86.70
2023-02-02T12:10:16.293Z,86.39
2023-02-02T12:11:16.266Z,85.67
2023-02-02T12:12:16.368Z,85.63
2023-02-02T12:13:16.220Z,85.31
2023-02-02T12:14:16.202Z,85.42
2023-02-02T12:15:16.198Z,85.31
2023-02-02T12:16:16.262Z,84.91
2023-02-02T12:17:16.209Z,84.49
2023-02-02T12:18:17.995Z,84.29
2023-02-02T12:19:16.207Z,84.39
2023-02-02T12:20:16.139Z,85.01
2023-02-02T12:21:16.131Z,84.70
2023-02-02T12:22:16.169Z,84.97
2023-02-02T12:23:16.232Z,84.87
2023-02-02T12:24:16.133Z,84.52
2023-02-02T12:25:16.265Z,84.42
2023-02-02T12:26:16.032Z,84.07
2023-02-02T12:27:16.049Z,83.49
2023-02-02T12:28:16.041Z,83.86
2023-02-02T12:29:16.041Z,83.25
2023-02-02T12:30:15.997Z,83.65
2023-02-02T12:31:16.054Z,83.11
2023-02-02T12:32:15.983Z,83.31
2023-02-02T12:33:16.046Z,81.76
2023-02-02T12:34:15.981Z,81.87
2023-02-02T12:35:15.966Z,82.28
2023-02-02T12:36:15.945Z,80.84
2023-02-02T12:37:16.002Z,80.94
2023-02-02T12:38:15.910Z,81.05
2023-02-02T12:39:15.888Z,79.85
2023-02-02T12:40:15.918Z,80.16
2023-02-02T12:41:15.898Z,80.67
2023-02-02T12:42:15.868Z,80.19
2023-02-02T12:43:15.983Z,80.30
2023-02-02T12:44:15.970Z,80.61
2023-02-02T12:45:15.848Z,80.54
2023-02-02T12:46:15.892Z,81.37
2023-02-02T12:47:15.799Z,81.37
2023-02-02T12:48:15.804Z,81.09
2023-02-02T12:49:15.744Z,81.61
2023-02-02T12:50:15.758Z,81.51
2023-02-02T12:51:15.721Z,81.09
2023-02-02T12:52:15.864Z,81.09